Ferraz de Vasconcelos, Brazil
Current Conditions -  °F | °C
As of 7:00 AM on Sunday 26 Oct 2014 (Local Time) from SBGR Reporting Station
Haze Haze  
Wind Chill: 64°   Ceiling: Unl
Heat Index: 64°   Visibility: 2.5mi
Dew Point: 64°   Wind: 1mph
Humidity: 100%   Direction: 110°ESE
Pressure: 30"   Gusts: NA
Location:  23.54°S, 46.37°W
Report Text: SBGR 260900Z 11001KT 4000 BR FEW010 18/18 Q1016
Loading
Personal Weather Stations






























Interactive Weather Map
Tropical Storm Tracking
New forecast layout! Learn more

10-Day Weather Forecast

Advertisements
Track Severe Weather on mobile